Terminal Aerodrome Forecast
Issued by NWS Charleston, WV

Current Version | Previous Version | Graphics & Text | Print | Product List | Glossary On
Versions: 1 2 3 4 5 6 7 8 9 10 11 12 13 14 15 16 17 18 19 20 21 22 23
000
FTUS41 KRLX 261914 AAA
TAFPKB
TAF AMD
KPKB 261914Z 2619/2718 30008KT P6SM VCTS BKN040CB BKN045 BKN070
     FM262000 28009KT 4SM SHRA BKN040 OVC100
     FM262100 30011KT P6SM BKN025 OVC100
     FM270000 27008KT P6SM SCT050
     FM270800 00000KT P6SM FEW250=

USA.gov is the U.S. government's official web portal to all federal, state and local government web resources and services.